sensor_id;sensor_type;location;lat;lon;timestamp;temperature;humidity
18388;DHT22;9320;50.256;19.026;2022-10-16T00:00:57;14.20;99.90
18388;DHT22;9320;50.256;19.026;2022-10-16T00:03:25;14.10;99.90
18388;DHT22;9320;50.256;19.026;2022-10-16T00:05:59;14.10;99.90
18388;DHT22;9320;50.256;19.026;2022-10-16T00:08:29;14.20;99.90
18388;DHT22;9320;50.256;19.026;2022-10-16T00:11:01;14.20;99.90
18388;DHT22;9320;50.256;19.026;2022-10-16T00:13:30;14.20;99.90
18388;DHT22;9320;50.256;19.026;2022-10-16T00:15:59;14.20;99.90
18388;DHT22;9320;50.256;19.026;2022-10-16T00:18:28;14.20;99.90
18388;DHT22;9320;50.256;19.026;2022-10-16T00:21:02;14.30;99.90
18388;DHT22;9320;50.256;19.026;2022-10-16T00:23:32;14.20;99.90
18388;DHT22;9320;50.256;19.026;2022-10-16T00:26:02;14.30;99.90
18388;DHT22;9320;50.256;19.026;2022-10-16T00:28:31;14.20;99.90
18388;DHT22;9320;50.256;19.026;2022-10-16T00:31:02;14.20;99.90
18388;DHT22;9320;50.256;19.026;2022-10-16T00:33:31;14.20;99.90
18388;DHT22;9320;50.256;19.026;2022-10-16T00:35:59;14.10;99.90
18388;DHT22;9320;50.256;19.026;2022-10-16T00:38:27;14.00;99.90
18388;DHT22;9320;50.256;19.026;2022-10-16T00:40:57;14.00;99.90
18388;DHT22;9320;50.256;19.026;2022-10-16T00:43:38;14.00;99.90
18388;DHT22;9320;50.256;19.026;2022-10-16T00:46:13;14.00;99.90
18388;DHT22;9320;50.256;19.026;2022-10-16T00:48:46;14.00;99.90
18388;DHT22;9320;50.256;19.026;2022-10-16T00:51:18;13.90;99.90
18388;DHT22;9320;50.256;19.026;2022-10-16T00:53:48;13.90;99.90
18388;DHT22;9320;50.256;19.026;2022-10-16T00:56:17;13.90;99.90
18388;DHT22;9320;50.256;19.026;2022-10-16T00:58:46;14.00;99.90
18388;DHT22;9320;50.256;19.026;2022-10-16T01:01:14;13.90;99.90
18388;DHT22;9320;50.256;19.026;2022-10-16T01:03:42;13.90;99.90
18388;DHT22;9320;50.256;19.026;2022-10-16T01:06:24;13.90;99.90
18388;DHT22;9320;50.256;19.026;2022-10-16T01:09:20;13.90;99.90
18388;DHT22;9320;50.256;19.026;2022-10-16T01:12:01;14.00;99.90
18388;DHT22;9320;50.256;19.026;2022-10-16T01:14:37;14.00;99.90
18388;DHT22;9320;50.256;19.026;2022-10-16T01:17:11;14.00;99.90
18388;DHT22;9320;50.256;19.026;2022-10-16T01:20:01;14.00;99.90
18388;DHT22;9320;50.256;19.026;2022-10-16T01:22:39;14.00;99.90
18388;DHT22;9320;50.256;19.026;2022-10-16T01:25:16;14.10;99.90
18388;DHT22;9320;50.256;19.026;2022-10-16T01:27:48;14.10;99.90
18388;DHT22;9320;50.256;19.026;2022-10-16T01:30:20;14.10;99.90
18388;DHT22;9320;50.256;19.026;2022-10-16T01:32:52;14.00;99.90
18388;DHT22;9320;50.256;19.026;2022-10-16T01:35:25;14.00;99.90
18388;DHT22;9320;50.256;19.026;2022-10-16T01:37:58;14.00;99.90
18388;DHT22;9320;50.256;19.026;2022-10-16T01:40:30;14.00;99.90
18388;DHT22;9320;50.256;19.026;2022-10-16T01:43:04;14.00;99.90
18388;DHT22;9320;50.256;19.026;2022-10-16T01:45:35;13.90;99.90
18388;DHT22;9320;50.256;19.026;2022-10-16T01:48:05;13.90;99.90
18388;DHT22;9320;50.256;19.026;2022-10-16T01:50:39;13.90;99.90
18388;DHT22;9320;50.256;19.026;2022-10-16T01:53:12;13.90;99.90
18388;DHT22;9320;50.256;19.026;2022-10-16T01:55:44;13.90;99.90
18388;DHT22;9320;50.256;19.026;2022-10-16T01:58:15;13.90;99.90
18388;DHT22;9320;50.256;19.026;2022-10-16T02:00:44;13.90;99.90
18388;DHT22;9320;50.256;19.026;2022-10-16T02:03:16;13.70;99.90
18388;DHT22;9320;50.256;19.026;2022-10-16T02:05:47;13.70;99.90
18388;DHT22;9320;50.256;19.026;2022-10-16T02:08:16;13.70;99.90
18388;DHT22;9320;50.256;19.026;2022-10-16T02:10:45;13.90;99.90
18388;DHT22;9320;50.256;19.026;2022-10-16T02:13:17;13.70;99.90
18388;DHT22;9320;50.256;19.026;2022-10-16T02:15:47;13.70;99.90
18388;DHT22;9320;50.256;19.026;2022-10-16T02:18:15;13.70;99.90
18388;DHT22;9320;50.256;19.026;2022-10-16T02:20:48;13.70;99.90
18388;DHT22;9320;50.256;19.026;2022-10-16T02:23:23;13.70;99.90
18388;DHT22;9320;50.256;19.026;2022-10-16T02:25:53;13.70;99.90
18388;DHT22;9320;50.256;19.026;2022-10-16T02:28:26;13.60;99.90
18388;DHT22;9320;50.256;19.026;2022-10-16T02:30:59;13.60;99.90
18388;DHT22;9320;50.256;19.026;2022-10-16T02:33:29;13.70;99.90
18388;DHT22;9320;50.256;19.026;2022-10-16T02:35:58;13.60;99.90
18388;DHT22;9320;50.256;19.026;2022-10-16T02:38:27;13.60;99.90
18388;DHT22;9320;50.256;19.026;2022-10-16T02:40:57;13.60;99.90
18388;DHT22;9320;50.256;19.026;2022-10-16T02:43:26;13.60;99.90
18388;DHT22;9320;50.256;19.026;2022-10-16T02:45:54;13.60;99.90
18388;DHT22;9320;50.256;19.026;2022-10-16T02:48:22;13.50;99.90
18388;DHT22;9320;50.256;19.026;2022-10-16T02:50:50;13.50;99.90
18388;DHT22;9320;50.256;19.026;2022-10-16T02:53:18;13.50;99.90
18388;DHT22;9320;50.256;19.026;2022-10-16T02:55:46;13.40;99.90
18388;DHT22;9320;50.256;19.026;2022-10-16T02:58:14;13.40;99.90
18388;DHT22;9320;50.256;19.026;2022-10-16T03:00:44;13.40;99.90
18388;DHT22;9320;50.256;19.026;2022-10-16T03:03:12;13.40;99.90
18388;DHT22;9320;50.256;19.026;2022-10-16T03:05:40;13.40;99.90
18388;DHT22;9320;50.256;19.026;2022-10-16T03:08:10;13.30;99.90
18388;DHT22;9320;50.256;19.026;2022-10-16T03:10:38;13.30;99.90
18388;DHT22;9320;50.256;19.026;2022-10-16T03:13:06;13.30;99.90
18388;DHT22;9320;50.256;19.026;2022-10-16T03:15:34;13.30;99.90
18388;DHT22;9320;50.256;19.026;2022-10-16T03:18:03;13.40;99.90
18388;DHT22;9320;50.256;19.026;2022-10-16T03:20:31;13.30;99.90
18388;DHT22;9320;50.256;19.026;2022-10-16T03:22:59;13.30;99.90
18388;DHT22;9320;50.256;19.026;2022-10-16T03:25:27;13.30;99.90
18388;DHT22;9320;50.256;19.026;2022-10-16T03:27:55;13.30;99.90
18388;DHT22;9320;50.256;19.026;2022-10-16T03:30:23;13.20;99.90
18388;DHT22;9320;50.256;19.026;2022-10-16T03:32:51;13.20;99.90
18388;DHT22;9320;50.256;19.026;2022-10-16T03:35:22;13.20;99.90
18388;DHT22;9320;50.256;19.026;2022-10-16T03:37:51;13.20;99.90
18388;DHT22;9320;50.256;19.026;2022-10-16T03:40:19;13.20;99.90
18388;DHT22;9320;50.256;19.026;2022-10-16T03:42:47;13.10;99.90
18388;DHT22;9320;50.256;19.026;2022-10-16T03:45:15;13.10;99.90
18388;DHT22;9320;50.256;19.026;2022-10-16T03:47:43;13.10;99.90
18388;DHT22;9320;50.256;19.026;2022-10-16T03:50:11;13.00;99.90
18388;DHT22;9320;50.256;19.026;2022-10-16T03:52:41;13.00;99.90
18388;DHT22;9320;50.256;19.026;2022-10-16T03:55:09;13.10;99.90
18388;DHT22;9320;50.256;19.026;2022-10-16T03:57:37;13.10;99.90
18388;DHT22;9320;50.256;19.026;2022-10-16T04:00:06;13.10;99.90
18388;DHT22;9320;50.256;19.026;2022-10-16T04:02:34;13.10;99.90
18388;DHT22;9320;50.256;19.026;2022-10-16T04:05:02;13.00;99.90
18388;DHT22;9320;50.256;19.026;2022-10-16T04:07:30;13.10;99.90
18388;DHT22;9320;50.256;19.026;2022-10-16T04:09:59;13.20;99.90
18388;DHT22;9320;50.256;19.026;2022-10-16T04:12:27;13.10;99.90
18388;DHT22;9320;50.256;19.026;2022-10-16T04:14:55;13.20;99.90
18388;DHT22;9320;50.256;19.026;2022-10-16T04:17:23;13.20;99.90
18388;DHT22;9320;50.256;19.026;2022-10-16T04:19:52;13.20;99.90
18388;DHT22;9320;50.256;19.026;2022-10-16T04:22:20;13.20;99.90
18388;DHT22;9320;50.256;19.026;2022-10-16T04:24:48;13.30;99.90
18388;DHT22;9320;50.256;19.026;2022-10-16T04:27:17;13.40;99.90
18388;DHT22;9320;50.256;19.026;2022-10-16T04:29:45;13.40;99.90
18388;DHT22;9320;50.256;19.026;2022-10-16T04:32:13;13.50;99.90
18388;DHT22;9320;50.256;19.026;2022-10-16T04:34:41;13.60;99.90
18388;DHT22;9320;50.256;19.026;2022-10-16T04:37:09;13.60;99.90
18388;DHT22;9320;50.256;19.026;2022-10-16T04:39:37;13.50;99.90
18388;DHT22;9320;50.256;19.026;2022-10-16T04:42:05;13.50;99.90
18388;DHT22;9320;50.256;19.026;2022-10-16T04:44:34;13.50;99.90
18388;DHT22;9320;50.256;19.026;2022-10-16T04:47:02;13.50;99.90
18388;DHT22;9320;50.256;19.026;2022-10-16T04:49:31;13.50;99.90
18388;DHT22;9320;50.256;19.026;2022-10-16T04:51:59;13.50;99.90
18388;DHT22;9320;50.256;19.026;2022-10-16T04:54:27;13.40;99.90
18388;DHT22;9320;50.256;19.026;2022-10-16T04:56:55;13.90;99.90
18388;DHT22;9320;50.256;19.026;2022-10-16T04:59:23;13.50;99.90
18388;DHT22;9320;50.256;19.026;2022-10-16T05:01:53;13.50;99.90
18388;DHT22;9320;50.256;19.026;2022-10-16T05:04:21;13.60;99.90
18388;DHT22;9320;50.256;19.026;2022-10-16T05:06:49;13.60;99.90
18388;DHT22;9320;50.256;19.026;2022-10-16T05:09:17;13.50;99.90
18388;DHT22;9320;50.256;19.026;2022-10-16T05:11:45;13.60;99.90
18388;DHT22;9320;50.256;19.026;2022-10-16T05:14:13;13.60;99.90
18388;DHT22;9320;50.256;19.026;2022-10-16T05:16:41;13.60;99.90
18388;DHT22;9320;50.256;19.026;2022-10-16T05:19:10;13.60;99.90
18388;DHT22;9320;50.256;19.026;2022-10-16T05:21:53;13.70;99.90
18388;DHT22;9320;50.256;19.026;2022-10-16T05:24:21;13.70;99.90
18388;DHT22;9320;50.256;19.026;2022-10-16T05:26:49;13.60;99.90
18388;DHT22;9320;50.256;19.026;2022-10-16T05:29:18;13.70;99.90
18388;DHT22;9320;50.256;19.026;2022-10-16T05:31:46;13.70;99.90
18388;DHT22;9320;50.256;19.026;2022-10-16T05:34:15;13.70;99.90
18388;DHT22;9320;50.256;19.026;2022-10-16T05:36:43;13.70;99.90
18388;DHT22;9320;50.256;19.026;2022-10-16T05:39:13;13.80;99.90
18388;DHT22;9320;50.256;19.026;2022-10-16T05:41:41;13.80;99.90
18388;DHT22;9320;50.256;19.026;2022-10-16T05:44:09;13.80;99.90
18388;DHT22;9320;50.256;19.026;2022-10-16T05:46:37;13.80;99.90
18388;DHT22;9320;50.256;19.026;2022-10-16T05:49:05;13.90;99.90
18388;DHT22;9320;50.256;19.026;2022-10-16T05:51:35;13.90;99.90
18388;DHT22;9320;50.256;19.026;2022-10-16T05:54:03;13.90;99.90
18388;DHT22;9320;50.256;19.026;2022-10-16T05:56:31;14.00;99.90
18388;DHT22;9320;50.256;19.026;2022-10-16T05:58:59;14.00;99.90
18388;DHT22;9320;50.256;19.026;2022-10-16T06:01:27;14.10;99.90
18388;DHT22;9320;50.256;19.026;2022-10-16T06:03:55;14.10;99.90
18388;DHT22;9320;50.256;19.026;2022-10-16T06:06:25;14.10;99.90
18388;DHT22;9320;50.256;19.026;2022-10-16T06:08:55;14.10;99.90
18388;DHT22;9320;50.256;19.026;2022-10-16T06:11:26;14.20;99.90
18388;DHT22;9320;50.256;19.026;2022-10-16T06:13:56;14.30;99.90
18388;DHT22;9320;50.256;19.026;2022-10-16T06:16:25;14.30;99.90
18388;DHT22;9320;50.256;19.026;2022-10-16T06:18:55;14.30;99.90
18388;DHT22;9320;50.256;19.026;2022-10-16T06:21:25;14.30;99.90
18388;DHT22;9320;50.256;19.026;2022-10-16T06:23:55;14.40;99.90
18388;DHT22;9320;50.256;19.026;2022-10-16T06:26:24;14.40;99.90
18388;DHT22;9320;50.256;19.026;2022-10-16T06:28:54;14.50;99.90
18388;DHT22;9320;50.256;19.026;2022-10-16T06:31:23;14.50;99.90
18388;DHT22;9320;50.256;19.026;2022-10-16T06:33:55;14.50;99.90
18388;DHT22;9320;50.256;19.026;2022-10-16T06:36:24;14.50;99.90
18388;DHT22;9320;50.256;19.026;2022-10-16T06:38:53;14.70;99.90
18388;DHT22;9320;50.256;19.026;2022-10-16T06:41:22;14.80;99.90
18388;DHT22;9320;50.256;19.026;2022-10-16T06:43:51;14.80;99.90
18388;DHT22;9320;50.256;19.026;2022-10-16T06:46:21;15.00;99.90
18388;DHT22;9320;50.256;19.026;2022-10-16T06:48:49;14.90;99.90
18388;DHT22;9320;50.256;19.026;2022-10-16T06:51:19;15.00;99.90
18388;DHT22;9320;50.256;19.026;2022-10-16T06:53:48;15.10;99.90
18388;DHT22;9320;50.256;19.026;2022-10-16T06:56:33;15.20;99.90
18388;DHT22;9320;50.256;19.026;2022-10-16T06:59:02;15.40;99.90
18388;DHT22;9320;50.256;19.026;2022-10-16T07:01:30;15.40;99.90
18388;DHT22;9320;50.256;19.026;2022-10-16T07:03:59;15.50;99.90
18388;DHT22;9320;50.256;19.026;2022-10-16T07:06:30;15.70;99.90
18388;DHT22;9320;50.256;19.026;2022-10-16T07:09:00;16.00;99.90
18388;DHT22;9320;50.256;19.026;2022-10-16T07:11:28;16.10;99.90
18388;DHT22;9320;50.256;19.026;2022-10-16T07:13:57;16.10;99.90
18388;DHT22;9320;50.256;19.026;2022-10-16T07:16:28;16.20;99.90
18388;DHT22;9320;50.256;19.026;2022-10-16T07:18:56;16.20;99.90
18388;DHT22;9320;50.256;19.026;2022-10-16T07:21:28;16.30;99.90
18388;DHT22;9320;50.256;19.026;2022-10-16T07:23:58;16.30;99.90
18388;DHT22;9320;50.256;19.026;2022-10-16T07:26:29;16.30;99.90
18388;DHT22;9320;50.256;19.026;2022-10-16T07:28:59;16.30;99.90
18388;DHT22;9320;50.256;19.026;2022-10-16T07:31:27;16.30;99.90
18388;DHT22;9320;50.256;19.026;2022-10-16T07:33:58;16.30;99.90
18388;DHT22;9320;50.256;19.026;2022-10-16T07:36:26;16.30;99.90
18388;DHT22;9320;50.256;19.026;2022-10-16T07:38:54;16.20;99.90
18388;DHT22;9320;50.256;19.026;2022-10-16T07:41:26;16.20;99.90
18388;DHT22;9320;50.256;19.026;2022-10-16T07:43:55;16.40;99.90
18388;DHT22;9320;50.256;19.026;2022-10-16T07:46:28;16.50;99.90
18388;DHT22;9320;50.256;19.026;2022-10-16T07:48:56;16.50;99.90
18388;DHT22;9320;50.256;19.026;2022-10-16T07:51:26;16.60;99.90
18388;DHT22;9320;50.256;19.026;2022-10-16T07:53:54;16.60;99.70
18388;DHT22;9320;50.256;19.026;2022-10-16T07:56:23;16.90;99.80
18388;DHT22;9320;50.256;19.026;2022-10-16T07:58:51;16.70;99.40
18388;DHT22;9320;50.256;19.026;2022-10-16T08:01:19;16.70;99.50
18388;DHT22;9320;50.256;19.026;2022-10-16T08:03:50;16.60;99.50
18388;DHT22;9320;50.256;19.026;2022-10-16T08:06:20;16.70;99.30
18388;DHT22;9320;50.256;19.026;2022-10-16T08:08:54;16.60;99.30
18388;DHT22;9320;50.256;19.026;2022-10-16T08:11:22;16.70;99.20
18388;DHT22;9320;50.256;19.026;2022-10-16T08:13:50;16.60;99.00
18388;DHT22;9320;50.256;19.026;2022-10-16T08:16:18;16.70;99.00
18388;DHT22;9320;50.256;19.026;2022-10-16T08:18:46;16.80;98.80
18388;DHT22;9320;50.256;19.026;2022-10-16T08:21:17;16.90;98.50
18388;DHT22;9320;50.256;19.026;2022-10-16T08:23:47;17.00;98.40
18388;DHT22;9320;50.256;19.026;2022-10-16T08:26:24;17.00;98.30
18388;DHT22;9320;50.256;19.026;2022-10-16T08:28:53;17.00;98.00
18388;DHT22;9320;50.256;19.026;2022-10-16T08:31:21;17.20;98.00
18388;DHT22;9320;50.256;19.026;2022-10-16T08:33:49;17.30;97.80
18388;DHT22;9320;50.256;19.026;2022-10-16T08:36:20;17.40;97.30
18388;DHT22;9320;50.256;19.026;2022-10-16T08:38:49;17.50;97.10
18388;DHT22;9320;50.256;19.026;2022-10-16T08:44:30;18.00;95.20
18388;DHT22;9320;50.256;19.026;2022-10-16T08:47:08;18.00;95.20
18388;DHT22;9320;50.256;19.026;2022-10-16T08:49:41;18.10;95.30
18388;DHT22;9320;50.256;19.026;2022-10-16T08:52:12;18.10;94.80
18388;DHT22;9320;50.256;19.026;2022-10-16T08:54:43;18.10;94.90
18388;DHT22;9320;50.256;19.026;2022-10-16T08:57:16;18.20;94.50
18388;DHT22;9320;50.256;19.026;2022-10-16T08:59:49;18.30;94.50
18388;DHT22;9320;50.256;19.026;2022-10-16T09:02:24;18.30;94.20
18388;DHT22;9320;50.256;19.026;2022-10-16T09:05:17;18.50;94.00
18388;DHT22;9320;50.256;19.026;2022-10-16T09:07:58;18.50;93.90
18388;DHT22;9320;50.256;19.026;2022-10-16T09:10:39;18.60;93.60
18388;DHT22;9320;50.256;19.026;2022-10-16T09:13:19;18.60;93.50
18388;DHT22;9320;50.256;19.026;2022-10-16T09:15:54;18.70;93.20
18388;DHT22;9320;50.256;19.026;2022-10-16T09:18:26;18.80;93.20
18388;DHT22;9320;50.256;19.026;2022-10-16T09:21:04;18.80;92.50
18388;DHT22;9320;50.256;19.026;2022-10-16T09:23:37;19.00;92.70
18388;DHT22;9320;50.256;19.026;2022-10-16T09:26:08;19.30;92.20
18388;DHT22;9320;50.256;19.026;2022-10-16T09:28:37;19.70;91.30
18388;DHT22;9320;50.256;19.026;2022-10-16T09:31:05;19.80;91.00
18388;DHT22;9320;50.256;19.026;2022-10-16T09:33:36;19.70;90.70
18388;DHT22;9320;50.256;19.026;2022-10-16T09:36:06;19.60;90.70
18388;DHT22;9320;50.256;19.026;2022-10-16T09:38:36;19.60;91.00
18388;DHT22;9320;50.256;19.026;2022-10-16T09:41:15;19.70;90.80
18388;DHT22;9320;50.256;19.026;2022-10-16T09:43:48;19.80;90.70
18388;DHT22;9320;50.256;19.026;2022-10-16T09:46:24;19.80;90.30
18388;DHT22;9320;50.256;19.026;2022-10-16T09:48:55;20.00;90.20
18388;DHT22;9320;50.256;19.026;2022-10-16T09:51:26;20.20;90.20
18388;DHT22;9320;50.256;19.026;2022-10-16T09:53:58;20.40;89.10
18388;DHT22;9320;50.256;19.026;2022-10-16T09:56:28;20.40;89.50
18388;DHT22;9320;50.256;19.026;2022-10-16T09:58:57;20.50;88.80
18388;DHT22;9320;50.256;19.026;2022-10-16T10:01:31;20.60;88.00
18388;DHT22;9320;50.256;19.026;2022-10-16T10:04:03;20.60;87.80
18388;DHT22;9320;50.256;19.026;2022-10-16T10:06:34;20.60;87.50
18388;DHT22;9320;50.256;19.026;2022-10-16T10:09:17;20.70;87.20
18388;DHT22;9320;50.256;19.026;2022-10-16T10:11:51;20.70;87.40
18388;DHT22;9320;50.256;19.026;2022-10-16T10:14:25;20.60;87.80
18388;DHT22;9320;50.256;19.026;2022-10-16T10:17:14;20.70;87.40
18388;DHT22;9320;50.256;19.026;2022-10-16T10:19:49;20.70;87.60
18388;DHT22;9320;50.256;19.026;2022-10-16T10:22:23;20.90;87.30
18388;DHT22;9320;50.256;19.026;2022-10-16T10:24:59;20.70;87.30
18388;DHT22;9320;50.256;19.026;2022-10-16T10:27:35;20.80;87.50
18388;DHT22;9320;50.256;19.026;2022-10-16T10:30:10;20.90;87.90
18388;DHT22;9320;50.256;19.026;2022-10-16T10:32:44;21.00;87.10
18388;DHT22;9320;50.256;19.026;2022-10-16T10:35:22;21.10;86.90
18388;DHT22;9320;50.256;19.026;2022-10-16T10:38:16;21.20;86.20
18388;DHT22;9320;50.256;19.026;2022-10-16T10:40:52;21.20;85.30
18388;DHT22;9320;50.256;19.026;2022-10-16T10:43:38;21.10;85.50
18388;DHT22;9320;50.256;19.026;2022-10-16T10:46:12;21.20;85.60
18388;DHT22;9320;50.256;19.026;2022-10-16T10:48:51;21.30;85.40
18388;DHT22;9320;50.256;19.026;2022-10-16T10:51:28;21.20;85.70
18388;DHT22;9320;50.256;19.026;2022-10-16T10:54:10;21.20;85.00
18388;DHT22;9320;50.256;19.026;2022-10-16T10:56:51;21.10;85.30
18388;DHT22;9320;50.256;19.026;2022-10-16T10:59:45;21.10;85.50
18388;DHT22;9320;50.256;19.026;2022-10-16T11:02:21;21.00;85.50
18388;DHT22;9320;50.256;19.026;2022-10-16T11:07:51;21.00;85.70
18388;DHT22;9320;50.256;19.026;2022-10-16T11:10:22;21.00;85.80
18388;DHT22;9320;50.256;19.026;2022-10-16T11:12:55;20.90;86.40
18388;DHT22;9320;50.256;19.026;2022-10-16T11:15:27;21.10;86.30
18388;DHT22;9320;50.256;19.026;2022-10-16T11:18:03;21.10;85.70
18388;DHT22;9320;50.256;19.026;2022-10-16T11:20:34;21.00;86.00
18388;DHT22;9320;50.256;19.026;2022-10-16T11:23:08;20.90;85.80
18388;DHT22;9320;50.256;19.026;2022-10-16T11:25:39;20.90;86.50
18388;DHT22;9320;50.256;19.026;2022-10-16T11:28:11;20.90;85.50
18388;DHT22;9320;50.256;19.026;2022-10-16T11:30:44;20.90;85.80
18388;DHT22;9320;50.256;19.026;2022-10-16T11:33:32;20.90;86.00
18388;DHT22;9320;50.256;19.026;2022-10-16T11:36:11;20.90;86.10
18388;DHT22;9320;50.256;19.026;2022-10-16T11:38:47;21.00;86.30
18388;DHT22;9320;50.256;19.026;2022-10-16T11:41:23;21.10;85.50
18388;DHT22;9320;50.256;19.026;2022-10-16T11:44:12;21.00;85.50
18388;DHT22;9320;50.256;19.026;2022-10-16T11:46:48;20.70;86.30
18388;DHT22;9320;50.256;19.026;2022-10-16T11:49:36;20.70;87.20
18388;DHT22;9320;50.256;19.026;2022-10-16T11:52:10;20.50;87.70
18388;DHT22;9320;50.256;19.026;2022-10-16T11:54:44;20.50;88.20
18388;DHT22;9320;50.256;19.026;2022-10-16T11:57:17;20.40;88.00
18388;DHT22;9320;50.256;19.026;2022-10-16T11:59:51;20.30;88.10
18388;DHT22;9320;50.256;19.026;2022-10-16T12:02:44;20.20;88.50
18388;DHT22;9320;50.256;19.026;2022-10-16T12:05:20;20.20;88.40
18388;DHT22;9320;50.256;19.026;2022-10-16T12:07:56;20.20;89.10
18388;DHT22;9320;50.256;19.026;2022-10-16T12:10:29;20.20;88.20
18388;DHT22;9320;50.256;19.026;2022-10-16T12:13:32;20.20;88.80
18388;DHT22;9320;50.256;19.026;2022-10-16T12:16:08;20.20;88.50
18388;DHT22;9320;50.256;19.026;2022-10-16T12:18:48;20.20;88.50
18388;DHT22;9320;50.256;19.026;2022-10-16T12:21:17;20.20;88.40
18388;DHT22;9320;50.256;19.026;2022-10-16T12:23:50;20.20;88.40
18388;DHT22;9320;50.256;19.026;2022-10-16T12:26:25;20.30;88.30
18388;DHT22;9320;50.256;19.026;2022-10-16T12:28:55;20.30;87.90
18388;DHT22;9320;50.256;19.026;2022-10-16T12:31:37;20.50;88.50
18388;DHT22;9320;50.256;19.026;2022-10-16T12:34:27;20.80;87.10
18388;DHT22;9320;50.256;19.026;2022-10-16T12:37:08;21.00;86.30
18388;DHT22;9320;50.256;19.026;2022-10-16T12:39:38;21.00;86.20
18388;DHT22;9320;50.256;19.026;2022-10-16T12:42:20;20.80;86.60
18388;DHT22;9320;50.256;19.026;2022-10-16T12:44:49;20.70;87.30
18388;DHT22;9320;50.256;19.026;2022-10-16T12:47:23;20.70;88.00
18388;DHT22;9320;50.256;19.026;2022-10-16T12:49:53;20.60;88.10
18388;DHT22;9320;50.256;19.026;2022-10-16T12:52:27;20.60;88.70
18388;DHT22;9320;50.256;19.026;2022-10-16T12:54:57;20.40;89.60
18388;DHT22;9320;50.256;19.026;2022-10-16T12:57:38;20.30;90.10
18388;DHT22;9320;50.256;19.026;2022-10-16T13:00:21;20.10;90.60
18388;DHT22;9320;50.256;19.026;2022-10-16T13:06:07;20.00;91.30
18388;DHT22;9320;50.256;19.026;2022-10-16T13:08:54;19.90;91.50
18388;DHT22;9320;50.256;19.026;2022-10-16T13:11:41;19.90;91.80
18388;DHT22;9320;50.256;19.026;2022-10-16T13:14:27;19.90;91.90
18388;DHT22;9320;50.256;19.026;2022-10-16T13:17:08;19.90;92.00
18388;DHT22;9320;50.256;19.026;2022-10-16T13:19:44;19.80;92.10
18388;DHT22;9320;50.256;19.026;2022-10-16T13:22:19;19.70;92.30
18388;DHT22;9320;50.256;19.026;2022-10-16T13:25:00;19.70;92.50
18388;DHT22;9320;50.256;19.026;2022-10-16T13:27:41;19.80;92.60
18388;DHT22;9320;50.256;19.026;2022-10-16T13:30:16;19.80;92.60
18388;DHT22;9320;50.256;19.026;2022-10-16T13:32:46;19.80;92.60
18388;DHT22;9320;50.256;19.026;2022-10-16T13:35:27;19.80;92.60
18388;DHT22;9320;50.256;19.026;2022-10-16T13:38:11;19.80;92.60
18388;DHT22;9320;50.256;19.026;2022-10-16T13:40:49;19.70;92.50
18388;DHT22;9320;50.256;19.026;2022-10-16T13:43:18;19.70;92.50
18388;DHT22;9320;50.256;19.026;2022-10-16T13:45:54;19.60;92.60
18388;DHT22;9320;50.256;19.026;2022-10-16T13:48:22;19.60;92.60
18388;DHT22;9320;50.256;19.026;2022-10-16T13:51:03;19.50;92.50
18388;DHT22;9320;50.256;19.026;2022-10-16T13:53:33;19.50;92.60
18388;DHT22;9320;50.256;19.026;2022-10-16T13:56:04;19.70;92.60
18388;DHT22;9320;50.256;19.026;2022-10-16T13:58:32;19.70;92.40
18388;DHT22;9320;50.256;19.026;2022-10-16T14:01:02;19.70;92.80
18388;DHT22;9320;50.256;19.026;2022-10-16T14:03:32;19.70;92.60
18388;DHT22;9320;50.256;19.026;2022-10-16T14:06:05;19.70;92.50
18388;DHT22;9320;50.256;19.026;2022-10-16T14:08:35;19.70;92.30
18388;DHT22;9320;50.256;19.026;2022-10-16T14:11:03;19.70;92.20
18388;DHT22;9320;50.256;19.026;2022-10-16T14:13:34;19.80;92.10
18388;DHT22;9320;50.256;19.026;2022-10-16T14:16:07;19.70;92.20
18388;DHT22;9320;50.256;19.026;2022-10-16T14:18:37;19.70;92.20
18388;DHT22;9320;50.256;19.026;2022-10-16T14:21:12;19.80;92.10
18388;DHT22;9320;50.256;19.026;2022-10-16T14:23:41;19.70;92.10
18388;DHT22;9320;50.256;19.026;2022-10-16T14:26:14;19.70;92.20
18388;DHT22;9320;50.256;19.026;2022-10-16T14:28:44;19.70;92.30
18388;DHT22;9320;50.256;19.026;2022-10-16T14:31:28;19.80;92.20
18388;DHT22;9320;50.256;19.026;2022-10-16T14:33:57;19.90;92.00
18388;DHT22;9320;50.256;19.026;2022-10-16T14:36:27;20.00;91.90
18388;DHT22;9320;50.256;19.026;2022-10-16T14:39:02;20.10;91.60
18388;DHT22;9320;50.256;19.026;2022-10-16T14:41:31;20.30;91.10
18388;DHT22;9320;50.256;19.026;2022-10-16T14:44:03;20.30;91.00
18388;DHT22;9320;50.256;19.026;2022-10-16T14:46:34;20.30;91.10
18388;DHT22;9320;50.256;19.026;2022-10-16T14:49:15;20.30;90.90
18388;DHT22;9320;50.256;19.026;2022-10-16T14:51:46;20.20;91.30
18388;DHT22;9320;50.256;19.026;2022-10-16T14:54:16;20.10;91.10
18388;DHT22;9320;50.256;19.026;2022-10-16T14:56:47;20.00;91.10
18388;DHT22;9320;50.256;19.026;2022-10-16T14:59:18;19.90;91.30
18388;DHT22;9320;50.256;19.026;2022-10-16T15:01:46;19.80;91.50
18388;DHT22;9320;50.256;19.026;2022-10-16T15:04:15;19.70;91.50
18388;DHT22;9320;50.256;19.026;2022-10-16T15:06:46;19.60;91.70
18388;DHT22;9320;50.256;19.026;2022-10-16T15:09:14;19.60;91.80
18388;DHT22;9320;50.256;19.026;2022-10-16T15:11:42;19.50;91.90
18388;DHT22;9320;50.256;19.026;2022-10-16T15:14:12;19.50;92.10
18388;DHT22;9320;50.256;19.026;2022-10-16T15:16:45;19.40;92.30
18388;DHT22;9320;50.256;19.026;2022-10-16T15:19:13;19.30;92.70
18388;DHT22;9320;50.256;19.026;2022-10-16T15:21:41;19.20;92.50
18388;DHT22;9320;50.256;19.026;2022-10-16T15:24:13;19.20;92.70
18388;DHT22;9320;50.256;19.026;2022-10-16T15:26:46;19.10;93.00
18388;DHT22;9320;50.256;19.026;2022-10-16T15:29:15;19.00;93.10
18388;DHT22;9320;50.256;19.026;2022-10-16T15:31:43;19.00;93.30
18388;DHT22;9320;50.256;19.026;2022-10-16T15:34:14;18.90;93.50
18388;DHT22;9320;50.256;19.026;2022-10-16T15:36:42;18.80;93.50
18388;DHT22;9320;50.256;19.026;2022-10-16T15:39:13;18.70;93.80
18388;DHT22;9320;50.256;19.026;2022-10-16T15:41:42;18.60;93.80
18388;DHT22;9320;50.256;19.026;2022-10-16T15:44:10;18.60;94.00
18388;DHT22;9320;50.256;19.026;2022-10-16T15:46:39;18.50;94.30
18388;DHT22;9320;50.256;19.026;2022-10-16T15:49:08;18.40;94.40
18388;DHT22;9320;50.256;19.026;2022-10-16T15:51:38;18.30;94.70
18388;DHT22;9320;50.256;19.026;2022-10-16T15:54:06;18.20;94.80
18388;DHT22;9320;50.256;19.026;2022-10-16T15:56:36;18.20;95.10
18388;DHT22;9320;50.256;19.026;2022-10-16T15:59:04;18.10;95.10
18388;DHT22;9320;50.256;19.026;2022-10-16T16:01:33;18.00;95.30
18388;DHT22;9320;50.256;19.026;2022-10-16T16:04:01;18.00;95.40
18388;DHT22;9320;50.256;19.026;2022-10-16T16:06:45;18.00;95.60
18388;DHT22;9320;50.256;19.026;2022-10-16T16:09:14;18.00;95.80